logo
Search for airport 
image banner adimage banner adimage banner ad
image banner ad

ED3080 - Mudersbach Hohenahr

Located in , Germany

ICAO - , IATA -

Data provided by Airmate  

General information

Coordinates: N50°41'31" E8°29'25"
Elevation is 927 feet MSL.
 
View others Airports in Hesse

Operational data

Special qualification required
Current time UTC:
Current local time:
Weather at : EDGS - Siegerland ( 29 km )
METAR: EDGS 250420Z AUTO 09006KT 9999 // NCD 14/10 Q1018
TAF: TAF EDGS 241700Z 2418/2503 06006KT CAVOK
View NOTAMs / SUP AIP / TFR affecting this airport [VIEW]
Communications frequencies: [VIEW]

Runways:

Airport contact information

Address: Germany

Satellite view of ED3080